Time;durP1;ratioP1;P1;durP2;ratioP2;P2;SDS_P1;SDS_P2;PMS_P1;PMS_P2;Temp;Humidity;BMP_temperature;BMP_pressure;BME280_temperature;BME280_humidity;BME280_pressure;Samples;Min_cycle;Max_cycle;Signal;HPM_P1;HPM_P2
2022/11/11 00:01:02;;;;;;;0.50;0.50;;;;;;;;;;5080135;27;87014;-65
2022/11/11 00:03:30;;;;;;;0.83;0.70;;;;;;;;;;5078966;27;88745;-65
2022/11/11 00:06:03;;;;;;;1.53;0.60;;;;;;;;;;5076138;27;91035;-65
2022/11/11 00:08:31;;;;;;;1.67;0.93;;;;;;;;;;5045585;27;87041;-65
2022/11/11 00:11:04;;;;;;;1.00;1.00;;;;;;;;;;5055055;27;86160;-65
2022/11/11 00:13:33;;;;;;;2.30;1.20;;;;;;;;;;5065562;27;87476;-65
2022/11/11 00:16:07;;;;;;;1.10;0.67;;;;;;;;;;5064946;27;88614;-65
2022/11/11 00:27:01;;;;;;;0.70;0.53;;;;;;;;;;5067276;27;87891;-65
2022/11/11 00:29:29;;;;;;;0.90;0.70;;;;;;;;;;5064192;27;86986;-65
2022/11/11 00:35:51;;;;;;;1.43;1.13;;;;;;;;;;5082856;27;89171;-65
2022/11/11 00:37:31;;;;;;;1.63;0.70;;;;;;;;;;5084740;27;86417;-65
2022/11/11 00:40:00;;;;;;;1.00;0.77;;;;;;;;;;5084836;27;86735;-64
2022/11/11 00:42:29;;;;;;;1.83;0.53;;;;;;;;;;5082775;27;87045;-65
2022/11/11 00:44:58;;;;;;;2.13;0.90;;;;;;;;;;5081975;27;90111;-65
2022/11/11 00:52:59;;;;;;;1.10;0.80;;;;;;;;;;5029947;27;87292;-65
2022/11/11 00:55:27;;;;;;;1.03;0.83;;;;;;;;;;5055200;27;91845;-65
2022/11/11 00:57:57;;;;;;;0.73;0.60;;;;;;;;;;5063495;27;88875;-65
2022/11/11 01:00:25;;;;;;;2.13;0.90;;;;;;;;;;5060898;27;86982;-65
2022/11/11 01:02:53;;;;;;;1.17;0.70;;;;;;;;;;5063872;27;86161;-65
2022/11/11 01:05:22;;;;;;;1.13;0.90;;;;;;;;;;5052194;27;90724;-65
2022/11/11 01:07:50;;;;;;;1.33;0.73;;;;;;;;;;5029944;28;88776;-65
2022/11/11 01:13:11;;;;;;;1.83;1.00;;;;;;;;;;5062580;27;86996;-65
2022/11/11 01:15:40;;;;;;;1.23;0.80;;;;;;;;;;5049836;27;88426;-65
2022/11/11 01:18:08;;;;;;;1.30;1.20;;;;;;;;;;5042468;28;88506;-65
2022/11/11 01:20:37;;;;;;;1.60;1.00;;;;;;;;;;5044137;27;87007;-65
2022/11/11 01:23:06;;;;;;;1.07;0.77;;;;;;;;;;5049270;27;87093;-64
2022/11/11 01:25:34;;;;;;;2.83;0.73;;;;;;;;;;5061909;27;88533;-65
2022/11/11 01:28:04;;;;;;;3.03;1.00;;;;;;;;;;5063924;27;87200;-65
2022/11/11 01:30:32;;;;;;;1.93;0.83;;;;;;;;;;5053293;27;87126;-65
2022/11/11 01:33:01;;;;;;;0.93;0.93;;;;;;;;;;5055094;27;89001;-65
2022/11/11 01:35:29;;;;;;;1.03;0.93;;;;;;;;;;5043305;27;89977;-65
2022/11/11 01:37:58;;;;;;;1.80;1.17;;;;;;;;;;5042293;28;88726;-65
2022/11/11 01:40:26;;;;;;;0.77;0.73;;;;;;;;;;5043358;28;86928;-65
2022/11/11 01:42:55;;;;;;;0.90;0.90;;;;;;;;;;5043775;27;86979;-65
2022/11/11 01:45:42;;;;;;;1.13;0.70;;;;;;;;;;5048811;27;90451;-65
2022/11/11 01:51:01;;;;;;;1.43;0.87;;;;;;;;;;5083691;27;86907;-64
2022/11/11 01:53:29;;;;;;;1.00;0.80;;;;;;;;;;5063429;27;86270;-64
2022/11/11 01:55:58;;;;;;;1.40;1.10;;;;;;;;;;5063112;27;87744;-65
2022/11/11 01:58:27;;;;;;;1.37;0.77;;;;;;;;;;5063304;27;86816;-65
2022/11/11 02:00:55;;;;;;;1.00;1.00;;;;;;;;;;5062791;27;87974;-65
2022/11/11 02:03:25;;;;;;;1.53;1.33;;;;;;;;;;5063043;27;86905;-64
2022/11/11 02:05:55;;;;;;;2.53;1.10;;;;;;;;;;5062957;27;88941;-65
2022/11/11 02:08:32;;;;;;;2.70;0.83;;;;;;;;;;5044811;27;88993;-65
2022/11/11 02:11:01;;;;;;;0.87;0.87;;;;;;;;;;5042906;28;86854;-65
2022/11/11 02:16:16;;;;;;;1.97;1.20;;;;;;;;;;5041794;28;89056;-64
2022/11/11 02:18:45;;;;;;;1.47;0.90;;;;;;;;;;5057270;27;89021;-64
2022/11/11 02:21:15;;;;;;;1.33;1.03;;;;;;;;;;5062845;27;86911;-64
2022/11/11 02:23:44;;;;;;;2.43;1.27;;;;;;;;;;5062677;27;87110;-64
2022/11/11 02:26:14;;;;;;;2.57;1.13;;;;;;;;;;5061520;27;88984;-64
2022/11/11 02:28:42;;;;;;;1.20;0.70;;;;;;;;;;5060599;27;89188;-64
2022/11/11 02:31:12;;;;;;;1.50;1.10;;;;;;;;;;5061764;27;87014;-64
2022/11/11 02:33:40;;;;;;;0.93;0.80;;;;;;;;;;5061712;27;87138;-64
2022/11/11 02:36:09;;;;;;;1.90;0.80;;;;;;;;;;5062123;27;87977;-64
2022/11/11 02:38:38;;;;;;;1.13;0.90;;;;;;;;;;5061166;27;87568;-64
2022/11/11 02:43:54;;;;;;;0.97;0.73;;;;;;;;;;5062302;27;86373;-64
2022/11/11 02:46:22;;;;;;;1.17;1.07;;;;;;;;;;5060555;27;87924;-64
2022/11/11 02:48:51;;;;;;;1.50;1.30;;;;;;;;;;5062362;27;88793;-64
2022/11/11 02:51:19;;;;;;;2.00;1.00;;;;;;;;;;5061825;27;87713;-64
2022/11/11 02:53:47;;;;;;;2.40;1.37;;;;;;;;;;5061313;27;87025;-64
2022/11/11 02:57:05;;;;;;;1.40;0.97;;;;;;;;;;5061876;27;88702;-64
2022/11/11 02:59:06;;;;;;;1.87;0.90;;;;;;;;;;5060828;27;88745;-64
2022/11/11 03:01:34;;;;;;;1.97;0.90;;;;;;;;;;5061545;27;86797;-64
2022/11/11 03:04:03;;;;;;;1.70;1.07;;;;;;;;;;5061547;27;87027;-64
2022/11/11 03:06:31;;;;;;;2.03;1.27;;;;;;;;;;5061154;27;88583;-64
2022/11/11 03:09:00;;;;;;;3.03;1.27;;;;;;;;;;5061277;27;87714;-64
2022/11/11 03:11:29;;;;;;;3.43;1.20;;;;;;;;;;5061883;27;87064;-64
2022/11/11 03:13:57;;;;;;;1.27;1.10;;;;;;;;;;5060719;27;87484;-64
2022/11/11 03:19:09;;;;;;;1.43;0.97;;;;;;;;;;5077401;27;88983;-64
2022/11/11 03:21:38;;;;;;;1.87;0.90;;;;;;;;;;5061492;27;86844;-64
2022/11/11 03:25:36;;;;;;;1.33;1.00;;;;;;;;;;5041307;28;86963;-65
2022/11/11 03:27:16;;;;;;;1.40;0.87;;;;;;;;;;5040814;28;89042;-64
2022/11/11 03:29:44;;;;;;;3.50;1.47;;;;;;;;;;5052711;27;92077;-64
2022/11/11 03:32:14;;;;;;;0.83;0.73;;;;;;;;;;5061319;27;88478;-64
2022/11/11 03:34:42;;;;;;;1.23;1.13;;;;;;;;;;5062406;27;86132;-64
2022/11/11 03:39:56;;;;;;;0.97;0.83;;;;;;;;;;5061624;27;87609;-64
2022/11/11 03:42:25;;;;;;;2.27;1.63;;;;;;;;;;5064714;27;88032;-64
2022/11/11 03:44:53;;;;;;;1.83;1.00;;;;;;;;;;5064612;27;87003;-64
2022/11/11 03:47:23;;;;;;;4.53;1.03;;;;;;;;;;5064456;27;87628;-64
2022/11/11 03:49:51;;;;;;;5.03;1.17;;;;;;;;;;5064134;27;87421;-64
2022/11/11 03:52:19;;;;;;;2.17;0.90;;;;;;;;;;5071559;27;86833;-64
2022/11/11 03:54:48;;;;;;;1.50;1.13;;;;;;;;;;5065733;27;87038;-64
2022/11/11 03:57:31;;;;;;;1.27;1.13;;;;;;;;;;5063724;27;88854;-64
2022/11/11 04:00:00;;;;;;;0.70;0.70;;;;;;;;;;5054215;27;91089;-64
2022/11/11 04:10:47;;;;;;;1.17;1.00;;;;;;;;;;5064724;27;89866;-64
2022/11/11 04:16:08;;;;;;;0.60;0.60;;;;;;;;;;5083402;27;86987;-64
2022/11/11 04:26:55;;;;;;;1.97;1.30;;;;;;;;;;5062379;27;86345;-64
2022/11/11 04:29:28;;;;;;;1.43;1.33;;;;;;;;;;5065615;27;88903;-64
2022/11/11 04:34:45;;;;;;;1.43;1.13;;;;;;;;;;5063769;27;87932;-64
2022/11/11 04:37:13;;;;;;;1.07;1.00;;;;;;;;;;5064945;27;87139;-64
2022/11/11 04:42:27;;;;;;;1.47;0.93;;;;;;;;;;5068511;27;87428;-64
2022/11/11 04:47:53;;;;;;;1.50;0.80;;;;;;;;;;5078721;27;87099;-64
2022/11/11 04:50:22;;;;;;;1.40;1.17;;;;;;;;;;5062990;27;88605;-64
2022/11/11 04:52:51;;;;;;;2.07;1.13;;;;;;;;;;5063396;27;88785;-65
2022/11/11 04:58:05;;;;;;;2.07;1.00;;;;;;;;;;5063079;27;86977;-64
2022/11/11 05:00:33;;;;;;;1.03;0.90;;;;;;;;;;5061225;27;89335;-64
2022/11/11 05:03:17;;;;;;;1.43;1.10;;;;;;;;;;5062076;27;89491;-64
2022/11/11 05:11:19;;;;;;;1.17;0.90;;;;;;;;;;5063888;27;90399;-64
2022/11/11 05:22:22;;;;;;;1.63;1.13;;;;;;;;;;4997914;28;89038;-64
2022/11/11 05:27:36;;;;;;;1.53;1.00;;;;;;;;;;5061449;27;87934;-66
2022/11/11 05:30:05;;;;;;;1.23;0.90;;;;;;;;;;5077241;27;87030;-64
2022/11/11 05:32:33;;;;;;;2.77;1.50;;;;;;;;;;5075247;27;89186;-64
2022/11/11 05:35:02;;;;;;;2.30;1.00;;;;;;;;;;5076006;27;90196;-64
2022/11/11 05:37:31;;;;;;;2.80;1.40;;;;;;;;;;5067623;27;88049;-64
2022/11/11 05:39:59;;;;;;;4.70;1.20;;;;;;;;;;5071237;27;86961;-64
2022/11/11 05:42:28;;;;;;;2.67;1.07;;;;;;;;;;5066933;27;89501;-64
2022/11/11 05:44:56;;;;;;;1.67;1.03;;;;;;;;;;5075977;27;87664;-64
2022/11/11 05:47:24;;;;;;;2.97;1.13;;;;;;;;;;5073230;27;87007;-64
2022/11/11 05:49:53;;;;;;;1.70;1.10;;;;;;;;;;5069663;27;87646;-64
2022/11/11 05:52:21;;;;;;;2.00;1.13;;;;;;;;;;5072686;27;90173;-64
2022/11/11 05:54:51;;;;;;;1.13;0.90;;;;;;;;;;5059383;27;89835;-64
2022/11/11 05:57:19;;;;;;;1.53;1.13;;;;;;;;;;5059152;27;87086;-64
2022/11/11 05:59:48;;;;;;;0.97;0.90;;;;;;;;;;5070065;27;86973;-64
2022/11/11 06:02:16;;;;;;;1.10;1.00;;;;;;;;;;5066330;27;91695;-64
2022/11/11 06:04:45;;;;;;;1.53;1.40;;;;;;;;;;5070817;27;89741;-64
2022/11/11 06:07:13;;;;;;;3.23;1.17;;;;;;;;;;5062893;27;87069;-64
2022/11/11 06:09:42;;;;;;;1.30;1.20;;;;;;;;;;5067032;27;86321;-65
2022/11/11 06:12:11;;;;;;;1.20;1.10;;;;;;;;;;5079994;27;88337;-63
2022/11/11 06:14:40;;;;;;;1.63;1.00;;;;;;;;;;5064828;27;88894;-62
2022/11/11 06:17:08;;;;;;;0.93;0.70;;;;;;;;;;5056562;27;88029;-62
2022/11/11 06:19:36;;;;;;;0.90;0.90;;;;;;;;;;5058329;27;87033;-62
2022/11/11 06:22:05;;;;;;;0.90;0.90;;;;;;;;;;5073507;27;88024;-62
2022/11/11 06:24:33;;;;;;;1.70;1.10;;;;;;;;;;5077217;27;88898;-62
2022/11/11 06:27:01;;;;;;;2.00;1.17;;;;;;;;;;5062729;27;87011;-62
2022/11/11 06:29:30;;;;;;;0.60;0.60;;;;;;;;;;5062508;27;86962;-62
2022/11/11 06:32:00;;;;;;;0.83;0.83;;;;;;;;;;5066179;27;88701;-62
2022/11/11 06:34:28;;;;;;;1.00;0.80;;;;;;;;;;5062741;27;88893;-62
2022/11/11 06:36:57;;;;;;;1.07;0.97;;;;;;;;;;5055019;27;86997;-62
2022/11/11 06:39:25;;;;;;;3.43;0.73;;;;;;;;;;5062155;27;86916;-62
2022/11/11 06:41:53;;;;;;;0.60;0.60;;;;;;;;;;5063314;27;88745;-62
2022/11/11 06:44:22;;;;;;;0.87;0.80;;;;;;;;;;5066890;27;89908;-62
2022/11/11 06:46:51;;;;;;;0.70;0.70;;;;;;;;;;5063344;27;87138;-62
2022/11/11 06:49:21;;;;;;;0.70;0.70;;;;;;;;;;5056371;27;88348;-62
2022/11/11 06:51:49;;;;;;;0.87;0.80;;;;;;;;;;5057300;27;87786;-62
2022/11/11 06:54:18;;;;;;;1.73;0.70;;;;;;;;;;5061805;27;88836;-62
2022/11/11 06:56:48;;;;;;;1.00;0.60;;;;;;;;;;5064101;27;87025;-62
2022/11/11 06:59:16;;;;;;;0.60;0.60;;;;;;;;;;5079828;27;86348;-62
2022/11/11 07:01:44;;;;;;;0.50;0.50;;;;;;;;;;5076510;27;89009;-62
2022/11/11 07:04:14;;;;;;;1.20;0.80;;;;;;;;;;5075722;27;87791;-63
2022/11/11 07:06:42;;;;;;;1.57;1.30;;;;;;;;;;5064636;27;87957;-62
2022/11/11 07:09:11;;;;;;;0.70;0.70;;;;;;;;;;5064201;27;87035;-62
2022/11/11 07:11:40;;;;;;;1.77;0.70;;;;;;;;;;5082502;27;90185;-62
2022/11/11 07:14:08;;;;;;;0.80;0.80;;;;;;;;;;5070396;27;88448;-62
2022/11/11 07:16:36;;;;;;;2.13;0.90;;;;;;;;;;5064047;27;87040;-63
2022/11/11 07:19:04;;;;;;;0.63;0.60;;;;;;;;;;5068125;27;87069;-62
2022/11/11 07:21:34;;;;;;;1.50;1.03;;;;;;;;;;5061342;27;87903;-62
2022/11/11 07:24:03;;;;;;;1.67;0.77;;;;;;;;;;5065732;27;90841;-63
2022/11/11 07:26:31;;;;;;;1.00;0.70;;;;;;;;;;5063120;27;87984;-62
2022/11/11 07:28:59;;;;;;;0.93;0.93;;;;;;;;;;5078477;27;86877;-62
2022/11/11 07:31:28;;;;;;;1.00;0.60;;;;;;;;;;5081303;27;90056;-62
2022/11/11 07:33:56;;;;;;;0.77;0.77;;;;;;;;;;5081376;27;89973;-62
2022/11/11 07:36:25;;;;;;;0.60;0.60;;;;;;;;;;5070851;27;86926;-62
2022/11/11 07:38:54;;;;;;;2.37;1.17;;;;;;;;;;5065625;27;87178;-62
2022/11/11 07:41:23;;;;;;;0.90;0.80;;;;;;;;;;5068354;27;88431;-62
2022/11/11 07:43:51;;;;;;;1.30;0.70;;;;;;;;;;5068664;27;88723;-62
2022/11/11 07:46:20;;;;;;;0.67;0.67;;;;;;;;;;5083580;27;87070;-62
2022/11/11 07:48:48;;;;;;;2.83;0.90;;;;;;;;;;5073567;27;86268;-62
2022/11/11 07:51:16;;;;;;;1.17;0.77;;;;;;;;;;5064336;27;88888;-62
2022/11/11 07:53:45;;;;;;;0.93;0.60;;;;;;;;;;5067437;27;88848;-62
2022/11/11 07:56:15;;;;;;;3.10;0.60;;;;;;;;;;5055184;27;89989;-63
2022/11/11 07:58:44;;;;;;;1.07;0.70;;;;;;;;;;5074152;27;86976;-63
2022/11/11 08:01:12;;;;;;;0.83;0.83;;;;;;;;;;5061677;27;88453;-63
2022/11/11 08:03:48;;;;;;;0.77;0.60;;;;;;;;;;5065743;27;88277;-63
2022/11/11 08:06:17;;;;;;;4.07;0.90;;;;;;;;;;5067508;27;87042;-67
2022/11/11 08:08:45;;;;;;;1.37;0.60;;;;;;;;;;5053142;27;87195;-64
2022/11/11 08:11:15;;;;;;;1.83;1.27;;;;;;;;;;5071675;27;88919;-66
2022/11/11 08:13:43;;;;;;;2.33;1.40;;;;;;;;;;5068386;27;88401;-66
2022/11/11 08:16:12;;;;;;;1.43;1.33;;;;;;;;;;5078167;27;87177;-66
2022/11/11 08:18:40;;;;;;;1.17;1.07;;;;;;;;;;5072367;27;87883;-66
2022/11/11 08:21:09;;;;;;;1.20;1.10;;;;;;;;;;5054886;27;88850;-66
2022/11/11 08:23:37;;;;;;;1.23;1.13;;;;;;;;;;5078438;27;89828;-66
2022/11/11 08:26:27;;;;;;;0.87;0.87;;;;;;;;;;5072625;27;88620;-66
2022/11/11 08:28:57;;;;;;;0.97;0.90;;;;;;;;;;5072515;27;87103;-66
2022/11/11 08:31:26;;;;;;;1.63;0.93;;;;;;;;;;5079345;27;88971;-66
2022/11/11 08:33:54;;;;;;;0.93;0.90;;;;;;;;;;5047712;27;88755;-66
2022/11/11 08:36:23;;;;;;;1.03;1.03;;;;;;;;;;5065050;27;87250;-66
2022/11/11 08:38:53;;;;;;;3.20;0.90;;;;;;;;;;5061414;27;86323;-66
2022/11/11 08:41:22;;;;;;;1.70;0.87;;;;;;;;;;5070331;27;89943;-66
2022/11/11 08:43:53;;;;;;;1.47;1.03;;;;;;;;;;5068074;27;89023;-66
2022/11/11 08:46:22;;;;;;;1.10;1.00;;;;;;;;;;5056380;27;88050;-66
2022/11/11 08:48:50;;;;;;;1.97;1.20;;;;;;;;;;5058808;27;86990;-66
2022/11/11 08:51:19;;;;;;;1.53;1.00;;;;;;;;;;5056423;27;88941;-66
2022/11/11 08:53:47;;;;;;;2.33;1.20;;;;;;;;;;5055474;27;89151;-66
2022/11/11 08:56:16;;;;;;;1.50;1.33;;;;;;;;;;5061523;27;87010;-66
2022/11/11 08:58:44;;;;;;;1.67;1.10;;;;;;;;;;5056633;27;89001;-66
2022/11/11 09:01:14;;;;;;;1.13;1.03;;;;;;;;;;5055807;27;87995;-66
2022/11/11 09:03:44;;;;;;;3.03;1.10;;;;;;;;;;5082458;27;88672;-66
2022/11/11 09:06:13;;;;;;;1.13;1.03;;;;;;;;;;5079940;27;87057;-66
2022/11/11 09:08:42;;;;;;;1.37;1.00;;;;;;;;;;5064347;27;86959;-66
2022/11/11 09:11:11;;;;;;;3.20;1.63;;;;;;;;;;5063821;27;87959;-66
2022/11/11 09:13:40;;;;;;;0.70;0.70;;;;;;;;;;5063926;27;89337;-65
2022/11/11 09:16:09;;;;;;;1.17;1.07;;;;;;;;;;5063708;27;86951;-65
2022/11/11 09:18:38;;;;;;;2.40;1.33;;;;;;;;;;5070433;27;87706;-66
2022/11/11 09:21:07;;;;;;;1.00;1.00;;;;;;;;;;5068172;27;87921;-66
2022/11/11 09:23:35;;;;;;;0.97;0.87;;;;;;;;;;5062868;27;88739;-66
2022/11/11 09:26:04;;;;;;;2.27;0.90;;;;;;;;;;5063318;27;87113;-65
2022/11/11 09:28:33;;;;;;;1.50;1.20;;;;;;;;;;5064233;27;86299;-66
2022/11/11 09:31:01;;;;;;;1.40;1.30;;;;;;;;;;5063798;27;88953;-66
2022/11/11 09:33:51;;;;;;;3.33;1.33;;;;;;;;;;5063887;27;89003;-66
2022/11/11 09:36:20;;;;;;;2.63;0.97;;;;;;;;;;5063388;27;87764;-66
2022/11/11 09:38:48;;;;;;;1.53;1.20;;;;;;;;;;5056034;27;87030;-66
2022/11/11 09:41:19;;;;;;;2.07;1.50;;;;;;;;;;5065867;27;89506;-66
2022/11/11 09:43:48;;;;;;;2.20;1.30;;;;;;;;;;5083685;27;88191;-66
2022/11/11 09:46:24;;;;;;;1.40;1.00;;;;;;;;;;5065778;27;87046;-66
2022/11/11 09:49:04;;;;;;;1.37;1.07;;;;;;;;;;5062177;27;87041;-66
2022/11/11 09:51:33;;;;;;;1.60;1.33;;;;;;;;;;5061681;27;91682;-66
2022/11/11 09:54:02;;;;;;;1.63;0.87;;;;;;;;;;5060897;27;91319;-65
2022/11/11 09:56:31;;;;;;;1.90;1.50;;;;;;;;;;5062386;27;87115;-64
2022/11/11 09:59:00;;;;;;;1.70;1.20;;;;;;;;;;5078373;27;87004;-64
2022/11/11 10:01:29;;;;;;;1.20;1.07;;;;;;;;;;5081123;27;90145;-65
2022/11/11 10:04:00;;;;;;;1.17;1.00;;;;;;;;;;5063769;27;89792;-65
2022/11/11 10:06:31;;;;;;;1.43;1.03;;;;;;;;;;5063793;27;87015;-65
2022/11/11 10:09:01;;;;;;;1.13;0.90;;;;;;;;;;5061863;27;87077;-65
2022/11/11 10:11:33;;;;;;;2.13;1.10;;;;;;;;;;5062979;27;89351;-65
2022/11/11 10:14:01;;;;;;;3.63;1.03;;;;;;;;;;5067756;27;87384;-65
2022/11/11 10:16:32;;;;;;;1.20;1.07;;;;;;;;;;5079454;27;86998;-65
2022/11/11 10:19:05;;;;;;;1.57;1.27;;;;;;;;;;5062985;27;86255;-65
2022/11/11 10:21:36;;;;;;;1.10;1.00;;;;;;;;;;5062863;27;90357;-65
2022/11/11 10:24:27;;;;;;;1.23;0.80;;;;;;;;;;5062527;27;90210;-65
2022/11/11 10:26:55;;;;;;;5.50;1.47;;;;;;;;;;5062512;27;87912;-64
2022/11/11 10:29:25;;;;;;;0.97;0.83;;;;;;;;;;5065025;27;87105;-66
2022/11/11 10:31:56;;;;;;;1.00;0.90;;;;;;;;;;5064456;27;88116;-65
2022/11/11 10:34:24;;;;;;;1.33;1.23;;;;;;;;;;5062569;27;88897;-65
2022/11/11 10:36:55;;;;;;;1.50;0.93;;;;;;;;;;5063277;27;87094;-66
2022/11/11 10:39:24;;;;;;;1.20;0.97;;;;;;;;;;5062725;27;86826;-65
2022/11/11 10:41:53;;;;;;;1.50;0.93;;;;;;;;;;5062339;27;88668;-65
2022/11/11 10:44:22;;;;;;;0.97;0.90;;;;;;;;;;5062083;27;91855;-64
2022/11/11 10:46:53;;;;;;;0.90;0.70;;;;;;;;;;5062072;27;87000;-65
2022/11/11 10:49:22;;;;;;;1.00;0.90;;;;;;;;;;5052885;27;87100;-65
2022/11/11 10:51:52;;;;;;;4.57;1.07;;;;;;;;;;5039442;28;90027;-64
2022/11/11 10:54:22;;;;;;;1.40;0.90;;;;;;;;;;5040513;28;88586;-65
2022/11/11 10:56:51;;;;;;;1.30;1.20;;;;;;;;;;5041932;28;87175;-64
2022/11/11 10:59:21;;;;;;;0.83;0.73;;;;;;;;;;5025274;28;87042;-65
2022/11/11 11:01:50;;;;;;;2.37;0.87;;;;;;;;;;5041317;28;89052;-64
2022/11/11 11:04:21;;;;;;;2.13;0.80;;;;;;;;;;5041609;28;88348;-65
2022/11/11 11:06:49;;;;;;;1.63;0.90;;;;;;;;;;5041833;28;86936;-65
2022/11/11 11:09:19;;;;;;;0.70;0.70;;;;;;;;;;5043359;27;86305;-65
2022/11/11 11:11:50;;;;;;;2.40;1.60;;;;;;;;;;5025221;27;89236;-64
2022/11/11 11:14:20;;;;;;;0.80;0.73;;;;;;;;;;5049028;27;88850;-65
2022/11/11 11:16:51;;;;;;;0.87;0.73;;;;;;;;;;5061837;27;87960;-64
2022/11/11 11:19:19;;;;;;;1.10;0.73;;;;;;;;;;5061462;27;87081;-66
2022/11/11 11:21:51;;;;;;;1.03;0.73;;;;;;;;;;5046354;27;87357;-63
2022/11/11 11:24:20;;;;;;;0.80;0.70;;;;;;;;;;5039000;28;88612;-64
2022/11/11 11:26:50;;;;;;;1.10;0.90;;;;;;;;;;5041821;28;86879;-64
2022/11/11 11:29:26;;;;;;;1.37;0.87;;;;;;;;;;5041622;28;87099;-63
2022/11/11 11:31:55;;;;;;;1.43;0.70;;;;;;;;;;5039487;28;88365;-64
2022/11/11 11:34:23;;;;;;;0.70;0.70;;;;;;;;;;5041819;28;88614;-64
2022/11/11 11:37:00;;;;;;;0.80;0.67;;;;;;;;;;5041601;28;86999;-64
2022/11/11 11:39:33;;;;;;;0.87;0.80;;;;;;;;;;5040897;28;87370;-64
2022/11/11 11:42:01;;;;;;;0.70;0.63;;;;;;;;;;5040387;28;90334;-64
2022/11/11 11:44:31;;;;;;;2.00;0.90;;;;;;;;;;5041053;28;89842;-64
2022/11/11 11:47:03;;;;;;;1.60;0.70;;;;;;;;;;5040570;28;87034;-64
2022/11/11 11:49:36;;;;;;;0.80;0.60;;;;;;;;;;5047976;27;87027;-63
2022/11/11 11:52:05;;;;;;;1.13;1.03;;;;;;;;;;5060951;27;88933;-64
2022/11/11 11:54:38;;;;;;;0.70;0.70;;;;;;;;;;5061747;27;87066;-64
2022/11/11 11:57:09;;;;;;;0.60;0.60;;;;;;;;;;5061758;27;87022;-64
2022/11/11 11:59:40;;;;;;;1.57;0.70;;;;;;;;;;5061475;27;86153;-64
2022/11/11 12:02:14;;;;;;;1.53;0.90;;;;;;;;;;5062650;27;89009;-64
2022/11/11 12:04:55;;;;;;;0.60;0.60;;;;;;;;;;5044827;28;88855;-64
2022/11/11 12:07:30;;;;;;;0.90;0.90;;;;;;;;;;5060698;27;90135;-65
2022/11/11 12:10:00;;;;;;;0.87;0.70;;;;;;;;;;5065529;27;86880;-63
2022/11/11 12:12:30;;;;;;;1.00;0.90;;;;;;;;;;5064811;27;88092;-64
2022/11/11 12:15:02;;;;;;;0.60;0.60;;;;;;;;;;5064734;27;89268;-64
2022/11/11 12:17:33;;;;;;;1.17;0.87;;;;;;;;;;5065804;27;86879;-64
2022/11/11 12:20:03;;;;;;;1.60;0.80;;;;;;;;;;5044153;28;86843;-64
2022/11/11 12:22:42;;;;;;;0.67;0.60;;;;;;;;;;5062698;27;87978;-64
2022/11/11 12:25:15;;;;;;;0.90;0.90;;;;;;;;;;5064611;27;88457;-64
2022/11/11 12:27:46;;;;;;;0.50;0.50;;;;;;;;;;5064477;27;87214;-64
2022/11/11 12:30:18;;;;;;;0.70;0.60;;;;;;;;;;5064036;27;86987;-64
2022/11/11 12:33:05;;;;;;;1.63;1.03;;;;;;;;;;5063854;27;90132;-64
2022/11/11 12:35:34;;;;;;;1.53;0.80;;;;;;;;;;5064416;27;89638;-64
2022/11/11 12:38:06;;;;;;;0.80;0.60;;;;;;;;;;5064755;27;86856;-64
2022/11/11 12:40:36;;;;;;;0.50;0.50;;;;;;;;;;5064725;27;87034;-64
2022/11/11 12:43:08;;;;;;;1.77;0.90;;;;;;;;;;5064143;27;90577;-65
2022/11/11 12:45:39;;;;;;;1.27;1.17;;;;;;;;;;5062393;27;90179;-65
2022/11/11 12:48:24;;;;;;;1.00;0.90;;;;;;;;;;5064443;27;86776;-65
2022/11/11 12:50:54;;;;;;;0.60;0.60;;;;;;;;;;5063575;27;86226;-65
2022/11/11 12:53:25;;;;;;;0.60;0.60;;;;;;;;;;5063468;27;89081;-63
2022/11/11 12:55:57;;;;;;;0.83;0.60;;;;;;;;;;5063522;27;88825;-63
2022/11/11 12:58:29;;;;;;;0.40;0.40;;;;;;;;;;5063706;27;87988;-62
2022/11/11 13:01:02;;;;;;;0.60;0.53;;;;;;;;;;5063906;27;86951;-63
2022/11/11 13:03:41;;;;;;;0.90;0.70;;;;;;;;;;5063531;27;88733;-63
2022/11/11 13:06:12;;;;;;;1.63;0.60;;;;;;;;;;5043002;28;89024;-63
2022/11/11 13:08:44;;;;;;;0.90;0.90;;;;;;;;;;5043052;28;87016;-63
2022/11/11 13:11:14;;;;;;;1.07;0.70;;;;;;;;;;5042982;28;86910;-62
2022/11/11 13:13:55;;;;;;;2.53;0.97;;;;;;;;;;5042101;28;87692;-63
2022/11/11 13:16:26;;;;;;;0.60;0.60;;;;;;;;;;5062763;27;87644;-63
2022/11/11 13:18:55;;;;;;;0.77;0.70;;;;;;;;;;5063936;27;86924;-63
2022/11/11 13:21:25;;;;;;;1.70;0.60;;;;;;;;;;5055508;27;87036;-63
2022/11/11 13:23:53;;;;;;;1.00;0.77;;;;;;;;;;5062597;27;89846;-63
2022/11/11 13:26:27;;;;;;;0.80;0.80;;;;;;;;;;5063239;27;89800;-63
2022/11/11 13:28:58;;;;;;;1.30;0.73;;;;;;;;;;5063535;27;87019;-64
2022/11/11 13:31:29;;;;;;;3.37;0.70;;;;;;;;;;5063338;27;86976;-64
2022/11/11 13:33:58;;;;;;;0.87;0.83;;;;;;;;;;5062591;27;88762;-62
2022/11/11 13:36:27;;;;;;;2.43;0.70;;;;;;;;;;5062952;27;88869;-63
2022/11/11 13:38:56;;;;;;;0.50;0.50;;;;;;;;;;5063287;27;87073;-63
2022/11/11 13:41:25;;;;;;;1.27;0.73;;;;;;;;;;5063772;27;86229;-63
2022/11/11 13:43:54;;;;;;;2.00;1.00;;;;;;;;;;5063333;27;89082;-64
2022/11/11 13:46:40;;;;;;;1.80;0.67;;;;;;;;;;5063036;27;88845;-64
2022/11/11 13:49:23;;;;;;;0.70;0.70;;;;;;;;;;5059553;27;88089;-63
2022/11/11 13:51:58;;;;;;;1.00;0.90;;;;;;;;;;5039547;28;88329;-63
2022/11/11 13:54:27;;;;;;;0.90;0.80;;;;;;;;;;5041592;28;89648;-63
2022/11/11 13:56:57;;;;;;;0.50;0.50;;;;;;;;;;5042157;28;87614;-64
2022/11/11 13:59:26;;;;;;;0.73;0.73;;;;;;;;;;5043671;28;87065;-64
2022/11/11 14:02:10;;;;;;;2.03;1.10;;;;;;;;;;5043119;28;86965;-64
2022/11/11 14:04:53;;;;;;;0.60;0.60;;;;;;;;;;5042901;28;88891;-63
2022/11/11 14:07:36;;;;;;;0.73;0.63;;;;;;;;;;5043067;28;90230;-63
2022/11/11 14:10:07;;;;;;;1.37;0.70;;;;;;;;;;5026935;28;87004;-63
2022/11/11 14:12:37;;;;;;;0.70;0.70;;;;;;;;;;5043442;28;86991;-63
2022/11/11 14:15:07;;;;;;;0.70;0.70;;;;;;;;;;5041923;28;90069;-63
2022/11/11 14:17:35;;;;;;;0.83;0.63;;;;;;;;;;5042269;28;91842;-64
2022/11/11 14:20:22;;;;;;;0.70;0.63;;;;;;;;;;5043430;28;87128;-63
2022/11/11 14:22:50;;;;;;;0.50;0.50;;;;;;;;;;5042855;28;87014;-63
2022/11/11 14:25:25;;;;;;;0.57;0.50;;;;;;;;;;5041384;27;92369;-63
2022/11/11 14:27:53;;;;;;;0.67;0.67;;;;;;;;;;5042390;28;88935;-64
2022/11/11 14:30:35;;;;;;;0.90;0.60;;;;;;;;;;5043129;28;87014;-64
2022/11/11 14:33:05;;;;;;;1.10;0.70;;;;;;;;;;5043353;28;85991;-63
2022/11/11 14:35:34;;;;;;;1.40;0.77;;;;;;;;;;5042486;28;89082;-63
2022/11/11 14:38:17;;;;;;;2.00;0.90;;;;;;;;;;5042782;28;88189;-63
2022/11/11 14:40:47;;;;;;;0.80;0.80;;;;;;;;;;5039813;28;88107;-63
2022/11/11 14:43:34;;;;;;;2.67;1.10;;;;;;;;;;5042303;28;87029;-63
2022/11/11 14:46:03;;;;;;;3.33;1.40;;;;;;;;;;5041881;28;89276;-63
2022/11/11 14:48:50;;;;;;;1.13;0.60;;;;;;;;;;5041850;28;87675;-63
2022/11/11 14:51:38;;;;;;;0.67;0.60;;;;;;;;;;5042429;27;86923;-63
2022/11/11 14:54:06;;;;;;;0.63;0.63;;;;;;;;;;5043039;28;87006;-63
2022/11/11 14:56:36;;;;;;;1.43;0.70;;;;;;;;;;5042880;28;88733;-63
2022/11/11 14:59:05;;;;;;;0.60;0.60;;;;;;;;;;5042811;28;88888;-64
2022/11/11 15:01:34;;;;;;;0.60;0.60;;;;;;;;;;5042041;28;87039;-64
2022/11/11 15:04:03;;;;;;;3.50;0.80;;;;;;;;;;5042440;28;87630;-64
2022/11/11 15:06:33;;;;;;;0.53;0.53;;;;;;;;;;5041885;28;89800;-64
2022/11/11 15:09:02;;;;;;;1.53;0.57;;;;;;;;;;5042025;28;87301;-64
2022/11/11 15:11:31;;;;;;;0.57;0.50;;;;;;;;;;5042028;28;86755;-64
2022/11/11 15:14:10;;;;;;;1.70;0.93;;;;;;;;;;5042185;28;86992;-64
2022/11/11 15:16:44;;;;;;;1.10;0.80;;;;;;;;;;5041577;28;87899;-64
2022/11/11 15:19:16;;;;;;;0.43;0.43;;;;;;;;;;5041303;28;87009;-63
2022/11/11 15:21:45;;;;;;;0.93;0.60;;;;;;;;;;5041826;28;86920;-63
2022/11/11 15:24:18;;;;;;;0.70;0.63;;;;;;;;;;5040642;28;86453;-63
2022/11/11 15:26:49;;;;;;;2.30;0.90;;;;;;;;;;5041282;28;89259;-63
2022/11/11 15:29:26;;;;;;;1.03;0.83;;;;;;;;;;5040928;28;87570;-63
2022/11/11 15:31:56;;;;;;;1.40;0.90;;;;;;;;;;5040451;28;87930;-63
2022/11/11 15:34:27;;;;;;;0.70;0.70;;;;;;;;;;5041405;28;87142;-62
2022/11/11 15:36:56;;;;;;;0.67;0.63;;;;;;;;;;5041704;27;88341;-63
2022/11/11 15:39:26;;;;;;;2.20;0.50;;;;;;;;;;5045419;28;86987;-63
2022/11/11 15:41:54;;;;;;;1.13;0.80;;;;;;;;;;5045404;28;86984;-64
2022/11/11 15:44:23;;;;;;;0.80;0.80;;;;;;;;;;5032828;28;86904;-69
2022/11/11 15:46:53;;;;;;;0.70;0.70;;;;;;;;;;5040663;28;89134;-63
2022/11/11 15:49:37;;;;;;;0.93;0.83;;;;;;;;;;5044393;27;88809;-60
2022/11/11 15:52:06;;;;;;;0.87;0.70;;;;;;;;;;5040741;28;87044;-59
2022/11/11 15:54:35;;;;;;;0.70;0.70;;;;;;;;;;5042859;28;87019;-59
2022/11/11 15:57:16;;;;;;;1.00;0.87;;;;;;;;;;5043125;28;90064;-60
2022/11/11 15:59:44;;;;;;;1.27;0.90;;;;;;;;;;5043641;28;89521;-60
2022/11/11 16:02:15;;;;;;;1.00;0.70;;;;;;;;;;5044609;28;87012;-59
2022/11/11 16:04:47;;;;;;;1.30;0.83;;;;;;;;;;5043990;28;87045;-60
2022/11/11 16:07:23;;;;;;;2.03;1.50;;;;;;;;;;5044138;28;89196;-59
2022/11/11 16:09:52;;;;;;;3.23;1.03;;;;;;;;;;5044516;28;88689;-59
2022/11/11 16:12:22;;;;;;;1.23;0.70;;;;;;;;;;5035336;28;86959;-60
2022/11/11 16:14:51;;;;;;;2.27;1.33;;;;;;;;;;5044176;28;86301;-60
2022/11/11 16:17:20;;;;;;;1.60;0.67;;;;;;;;;;5035928;28;89149;-60
2022/11/11 16:19:49;;;;;;;0.60;0.60;;;;;;;;;;5043474;28;87831;-60
2022/11/11 16:22:18;;;;;;;0.93;0.90;;;;;;;;;;5043093;28;88069;-60
2022/11/11 16:24:46;;;;;;;1.97;0.80;;;;;;;;;;5043816;28;86991;-60